sensor_id;sensor_type;location;lat;lon;timestamp;P1;durP1;ratioP1;P2;durP2;ratioP2
31424;SDS011;18054;51.572;7.372;2022-08-04T00:01:27;14.98;;;3.72;;
31424;SDS011;18054;51.572;7.372;2022-08-04T00:03:59;11.13;;;2.78;;
31424;SDS011;18054;51.572;7.372;2022-08-04T00:06:30;12.70;;;3.22;;
31424;SDS011;18054;51.572;7.372;2022-08-04T00:09:00;12.82;;;3.08;;
31424;SDS011;18054;51.572;7.372;2022-08-04T00:11:30;9.80;;;3.17;;
31424;SDS011;18054;51.572;7.372;2022-08-04T00:14:03;13.82;;;3.42;;
31424;SDS011;18054;51.572;7.372;2022-08-04T00:16:31;10.10;;;3.28;;
31424;SDS011;18054;51.572;7.372;2022-08-04T00:19:04;15.20;;;3.22;;
31424;SDS011;18054;51.572;7.372;2022-08-04T00:21:34;11.88;;;3.05;;
31424;SDS011;18054;51.572;7.372;2022-08-04T00:24:02;8.50;;;3.03;;
31424;SDS011;18054;51.572;7.372;2022-08-04T00:26:39;8.82;;;3.08;;
31424;SDS011;18054;51.572;7.372;2022-08-04T00:29:07;12.70;;;3.72;;
31424;SDS011;18054;51.572;7.372;2022-08-04T00:31:34;7.80;;;3.00;;
31424;SDS011;18054;51.572;7.372;2022-08-04T00:34:23;11.95;;;3.65;;
31424;SDS011;18054;51.572;7.372;2022-08-04T00:36:50;15.70;;;3.30;;
31424;SDS011;18054;51.572;7.372;2022-08-04T00:39:19;14.15;;;3.08;;
31424;SDS011;18054;51.572;7.372;2022-08-04T00:42:06;13.55;;;4.10;;
31424;SDS011;18054;51.572;7.372;2022-08-04T00:44:38;10.23;;;2.97;;
31424;SDS011;18054;51.572;7.372;2022-08-04T00:47:17;21.23;;;3.85;;
31424;SDS011;18054;51.572;7.372;2022-08-04T00:52:32;10.57;;;3.63;;
31424;SDS011;18054;51.572;7.372;2022-08-04T00:55:16;13.38;;;2.65;;
31424;SDS011;18054;51.572;7.372;2022-08-04T00:57:54;11.75;;;3.10;;
31424;SDS011;18054;51.572;7.372;2022-08-04T01:00:25;11.82;;;3.42;;
31424;SDS011;18054;51.572;7.372;2022-08-04T01:03:00;11.60;;;2.75;;
31424;SDS011;18054;51.572;7.372;2022-08-04T01:05:34;11.98;;;2.95;;
31424;SDS011;18054;51.572;7.372;2022-08-04T01:10:47;15.57;;;3.03;;
31424;SDS011;18054;51.572;7.372;2022-08-04T01:13:33;11.80;;;3.17;;
31424;SDS011;18054;51.572;7.372;2022-08-04T01:16:03;9.48;;;2.78;;
31424;SDS011;18054;51.572;7.372;2022-08-04T01:18:32;13.95;;;2.80;;
31424;SDS011;18054;51.572;7.372;2022-08-04T01:21:05;10.98;;;3.00;;
31424;SDS011;18054;51.572;7.372;2022-08-04T01:23:45;11.25;;;2.83;;
31424;SDS011;18054;51.572;7.372;2022-08-04T01:29:11;12.43;;;3.20;;
31424;SDS011;18054;51.572;7.372;2022-08-04T01:31:48;6.63;;;2.80;;
31424;SDS011;18054;51.572;7.372;2022-08-04T01:34:18;22.88;;;3.42;;
31424;SDS011;18054;51.572;7.372;2022-08-04T01:36:46;11.85;;;3.22;;
31424;SDS011;18054;51.572;7.372;2022-08-04T01:39:18;9.40;;;2.60;;
31424;SDS011;18054;51.572;7.372;2022-08-04T01:42:04;15.90;;;3.35;;
31424;SDS011;18054;51.572;7.372;2022-08-04T01:44:36;15.02;;;3.13;;
31424;SDS011;18054;51.572;7.372;2022-08-04T01:47:04;12.98;;;3.22;;
31424;SDS011;18054;51.572;7.372;2022-08-04T01:49:33;7.25;;;2.72;;
31424;SDS011;18054;51.572;7.372;2022-08-04T01:52:06;12.88;;;2.63;;
31424;SDS011;18054;51.572;7.372;2022-08-04T01:54:36;17.45;;;3.25;;
31424;SDS011;18054;51.572;7.372;2022-08-04T01:57:04;10.38;;;2.30;;
31424;SDS011;18054;51.572;7.372;2022-08-04T01:59:53;10.40;;;3.35;;
31424;SDS011;18054;51.572;7.372;2022-08-04T02:02:21;14.52;;;3.05;;
31424;SDS011;18054;51.572;7.372;2022-08-04T02:04:50;14.25;;;3.28;;
31424;SDS011;18054;51.572;7.372;2022-08-04T02:07:25;9.38;;;2.88;;
31424;SDS011;18054;51.572;7.372;2022-08-04T02:09:58;11.18;;;3.10;;
31424;SDS011;18054;51.572;7.372;2022-08-04T02:12:31;21.02;;;3.55;;
31424;SDS011;18054;51.572;7.372;2022-08-04T02:15:05;9.35;;;2.95;;
31424;SDS011;18054;51.572;7.372;2022-08-04T02:17:40;14.15;;;3.22;;
31424;SDS011;18054;51.572;7.372;2022-08-04T02:20:14;8.70;;;2.88;;
31424;SDS011;18054;51.572;7.372;2022-08-04T02:22:43;13.07;;;3.40;;
31424;SDS011;18054;51.572;7.372;2022-08-04T02:25:14;21.83;;;3.33;;
31424;SDS011;18054;51.572;7.372;2022-08-04T02:27:54;14.50;;;3.47;;
31424;SDS011;18054;51.572;7.372;2022-08-04T02:30:29;14.73;;;3.65;;
31424;SDS011;18054;51.572;7.372;2022-08-04T02:33:01;13.38;;;3.35;;
31424;SDS011;18054;51.572;7.372;2022-08-04T02:35:28;17.58;;;3.72;;
31424;SDS011;18054;51.572;7.372;2022-08-04T02:38:00;9.93;;;2.72;;
31424;SDS011;18054;51.572;7.372;2022-08-04T02:40:30;16.08;;;3.47;;
31424;SDS011;18054;51.572;7.372;2022-08-04T02:42:59;17.60;;;3.40;;
31424;SDS011;18054;51.572;7.372;2022-08-04T02:45:31;8.15;;;3.28;;
31424;SDS011;18054;51.572;7.372;2022-08-04T02:48:02;13.30;;;2.88;;
31424;SDS011;18054;51.572;7.372;2022-08-04T02:50:50;18.70;;;2.65;;
31424;SDS011;18054;51.572;7.372;2022-08-04T02:53:22;22.45;;;3.28;;
31424;SDS011;18054;51.572;7.372;2022-08-04T02:55:51;11.02;;;2.72;;
31424;SDS011;18054;51.572;7.372;2022-08-04T02:58:21;14.60;;;2.90;;
31424;SDS011;18054;51.572;7.372;2022-08-04T03:00:51;15.80;;;3.40;;
31424;SDS011;18054;51.572;7.372;2022-08-04T03:03:20;9.57;;;2.97;;
31424;SDS011;18054;51.572;7.372;2022-08-04T03:05:53;14.90;;;3.60;;
31424;SDS011;18054;51.572;7.372;2022-08-04T03:08:36;18.08;;;4.13;;
31424;SDS011;18054;51.572;7.372;2022-08-04T03:17:03;13.82;;;3.72;;
31424;SDS011;18054;51.572;7.372;2022-08-04T03:19:43;16.35;;;2.88;;
31424;SDS011;18054;51.572;7.372;2022-08-04T03:22:23;14.07;;;3.17;;
31424;SDS011;18054;51.572;7.372;2022-08-04T03:25:10;10.10;;;2.88;;
31424;SDS011;18054;51.572;7.372;2022-08-04T03:27:49;8.05;;;3.03;;
31424;SDS011;18054;51.572;7.372;2022-08-04T03:30:22;13.65;;;3.70;;
31424;SDS011;18054;51.572;7.372;2022-08-04T03:33:08;12.38;;;3.40;;
31424;SDS011;18054;51.572;7.372;2022-08-04T03:38:29;10.85;;;3.10;;
31424;SDS011;18054;51.572;7.372;2022-08-04T03:41:21;12.00;;;3.15;;
31424;SDS011;18054;51.572;7.372;2022-08-04T03:44:24;17.00;;;2.97;;
31424;SDS011;18054;51.572;7.372;2022-08-04T03:47:00;13.57;;;3.42;;
31424;SDS011;18054;51.572;7.372;2022-08-04T03:49:40;20.35;;;4.47;;
31424;SDS011;18054;51.572;7.372;2022-08-04T03:52:12;12.98;;;3.65;;
31424;SDS011;18054;51.572;7.372;2022-08-04T03:55:19;11.23;;;3.05;;
31424;SDS011;18054;51.572;7.372;2022-08-04T04:00:38;15.15;;;3.30;;
31424;SDS011;18054;51.572;7.372;2022-08-04T04:03:15;14.02;;;3.22;;
31424;SDS011;18054;51.572;7.372;2022-08-04T04:06:05;11.80;;;4.15;;
31424;SDS011;18054;51.572;7.372;2022-08-04T04:08:51;13.82;;;3.25;;
31424;SDS011;18054;51.572;7.372;2022-08-04T04:11:32;16.25;;;3.10;;
31424;SDS011;18054;51.572;7.372;2022-08-04T04:14:22;11.20;;;3.45;;
31424;SDS011;18054;51.572;7.372;2022-08-04T04:19:38;24.08;;;4.57;;
31424;SDS011;18054;51.572;7.372;2022-08-04T04:22:16;9.95;;;3.15;;
31424;SDS011;18054;51.572;7.372;2022-08-04T04:24:57;12.60;;;3.33;;
31424;SDS011;18054;51.572;7.372;2022-08-04T04:27:36;16.85;;;3.63;;
31424;SDS011;18054;51.572;7.372;2022-08-04T04:30:07;12.35;;;3.80;;
31424;SDS011;18054;51.572;7.372;2022-08-04T04:35:31;15.43;;;4.43;;
31424;SDS011;18054;51.572;7.372;2022-08-04T04:38:12;26.67;;;3.50;;
31424;SDS011;18054;51.572;7.372;2022-08-04T04:40:44;17.13;;;4.88;;
31424;SDS011;18054;51.572;7.372;2022-08-04T04:43:35;14.05;;;3.30;;
31424;SDS011;18054;51.572;7.372;2022-08-04T04:46:20;9.80;;;3.22;;
31424;SDS011;18054;51.572;7.372;2022-08-04T04:48:50;11.38;;;2.67;;
31424;SDS011;18054;51.572;7.372;2022-08-04T04:51:21;12.00;;;3.30;;
31424;SDS011;18054;51.572;7.372;2022-08-04T04:53:53;17.15;;;3.60;;
31424;SDS011;18054;51.572;7.372;2022-08-04T04:56:26;14.32;;;3.50;;
31424;SDS011;18054;51.572;7.372;2022-08-04T04:58:55;14.52;;;3.55;;
31424;SDS011;18054;51.572;7.372;2022-08-04T05:01:39;18.33;;;4.18;;
31424;SDS011;18054;51.572;7.372;2022-08-04T05:04:27;20.38;;;4.55;;
31424;SDS011;18054;51.572;7.372;2022-08-04T05:09:47;20.05;;;4.10;;
31424;SDS011;18054;51.572;7.372;2022-08-04T05:15:33;16.15;;;3.35;;
31424;SDS011;18054;51.572;7.372;2022-08-04T05:18:01;17.65;;;3.95;;
31424;SDS011;18054;51.572;7.372;2022-08-04T05:20:33;20.27;;;4.47;;
31424;SDS011;18054;51.572;7.372;2022-08-04T05:23:01;11.65;;;3.28;;
31424;SDS011;18054;51.572;7.372;2022-08-04T05:25:36;18.50;;;6.00;;
31424;SDS011;18054;51.572;7.372;2022-08-04T05:28:07;16.75;;;3.45;;
31424;SDS011;18054;51.572;7.372;2022-08-04T05:30:37;20.63;;;3.50;;
31424;SDS011;18054;51.572;7.372;2022-08-04T05:33:13;28.85;;;3.95;;
31424;SDS011;18054;51.572;7.372;2022-08-04T05:35:42;31.73;;;4.55;;
31424;SDS011;18054;51.572;7.372;2022-08-04T05:38:32;18.15;;;4.38;;
31424;SDS011;18054;51.572;7.372;2022-08-04T05:41:02;16.98;;;4.20;;
31424;SDS011;18054;51.572;7.372;2022-08-04T05:43:29;13.80;;;3.75;;
31424;SDS011;18054;51.572;7.372;2022-08-04T05:45:57;21.77;;;4.07;;
31424;SDS011;18054;51.572;7.372;2022-08-04T05:48:25;15.20;;;4.55;;
31424;SDS011;18054;51.572;7.372;2022-08-04T05:50:54;13.32;;;4.78;;
31424;SDS011;18054;51.572;7.372;2022-08-04T05:53:26;23.73;;;5.40;;
31424;SDS011;18054;51.572;7.372;2022-08-04T05:55:54;21.10;;;4.82;;
31424;SDS011;18054;51.572;7.372;2022-08-04T05:58:26;28.50;;;4.85;;
31424;SDS011;18054;51.572;7.372;2022-08-04T06:00:56;20.83;;;6.15;;
31424;SDS011;18054;51.572;7.372;2022-08-04T06:03:25;15.93;;;5.50;;
31424;SDS011;18054;51.572;7.372;2022-08-04T06:05:53;19.55;;;4.63;;
31424;SDS011;18054;51.572;7.372;2022-08-04T06:10:49;12.65;;;4.80;;
31424;SDS011;18054;51.572;7.372;2022-08-04T06:13:18;19.83;;;5.00;;
31424;SDS011;18054;51.572;7.372;2022-08-04T06:16:08;13.00;;;4.85;;
31424;SDS011;18054;51.572;7.372;2022-08-04T06:18:56;23.45;;;4.25;;
31424;SDS011;18054;51.572;7.372;2022-08-04T06:21:46;13.35;;;4.20;;
31424;SDS011;18054;51.572;7.372;2022-08-04T06:24:16;26.35;;;5.38;;
31424;SDS011;18054;51.572;7.372;2022-08-04T06:26:44;15.05;;;4.78;;
31424;SDS011;18054;51.572;7.372;2022-08-04T06:29:12;22.02;;;7.25;;
31424;SDS011;18054;51.572;7.372;2022-08-04T06:31:47;22.00;;;5.45;;
31424;SDS011;18054;51.572;7.372;2022-08-04T06:34:43;20.48;;;4.63;;
31424;SDS011;18054;51.572;7.372;2022-08-04T06:37:11;14.48;;;4.13;;
31424;SDS011;18054;51.572;7.372;2022-08-04T06:39:59;15.75;;;4.68;;
31424;SDS011;18054;51.572;7.372;2022-08-04T06:42:48;12.65;;;3.90;;
31424;SDS011;18054;51.572;7.372;2022-08-04T06:45:16;19.13;;;3.75;;
31424;SDS011;18054;51.572;7.372;2022-08-04T06:47:46;15.25;;;4.25;;
31424;SDS011;18054;51.572;7.372;2022-08-04T06:50:14;17.13;;;4.10;;
31424;SDS011;18054;51.572;7.372;2022-08-04T06:53:02;13.90;;;3.10;;
31424;SDS011;18054;51.572;7.372;2022-08-04T06:55:30;10.13;;;3.67;;
31424;SDS011;18054;51.572;7.372;2022-08-04T06:57:58;19.23;;;3.75;;
31424;SDS011;18054;51.572;7.372;2022-08-04T07:00:28;10.95;;;4.35;;
31424;SDS011;18054;51.572;7.372;2022-08-04T07:02:58;11.57;;;3.33;;
31424;SDS011;18054;51.572;7.372;2022-08-04T07:05:26;16.52;;;3.55;;
31424;SDS011;18054;51.572;7.372;2022-08-04T07:07:54;11.98;;;2.97;;
31424;SDS011;18054;51.572;7.372;2022-08-04T07:10:24;10.80;;;3.25;;
31424;SDS011;18054;51.572;7.372;2022-08-04T07:12:53;15.48;;;4.13;;
31424;SDS011;18054;51.572;7.372;2022-08-04T07:15:21;14.77;;;3.67;;
31424;SDS011;18054;51.572;7.372;2022-08-04T07:17:49;16.88;;;3.20;;
31424;SDS011;18054;51.572;7.372;2022-08-04T07:20:19;15.05;;;3.22;;
31424;SDS011;18054;51.572;7.372;2022-08-04T07:23:02;10.60;;;2.95;;
31424;SDS011;18054;51.572;7.372;2022-08-04T07:25:29;15.57;;;3.65;;
31424;SDS011;18054;51.572;7.372;2022-08-04T07:28:17;14.98;;;2.92;;
31424;SDS011;18054;51.572;7.372;2022-08-04T07:30:46;17.83;;;4.25;;
31424;SDS011;18054;51.572;7.372;2022-08-04T07:33:13;10.55;;;3.00;;
31424;SDS011;18054;51.572;7.372;2022-08-04T07:35:42;9.10;;;2.95;;
31424;SDS011;18054;51.572;7.372;2022-08-04T07:38:30;10.27;;;2.42;;
31424;SDS011;18054;51.572;7.372;2022-08-04T07:40:57;7.03;;;2.50;;
31424;SDS011;18054;51.572;7.372;2022-08-04T07:45:52;11.43;;;2.63;;
31424;SDS011;18054;51.572;7.372;2022-08-04T07:48:20;17.08;;;2.97;;
31424;SDS011;18054;51.572;7.372;2022-08-04T07:50:51;9.88;;;2.50;;
31424;SDS011;18054;51.572;7.372;2022-08-04T07:53:18;10.75;;;2.40;;
31424;SDS011;18054;51.572;7.372;2022-08-04T07:56:07;11.27;;;2.63;;
31424;SDS011;18054;51.572;7.372;2022-08-04T07:58:34;7.63;;;2.13;;
31424;SDS011;18054;51.572;7.372;2022-08-04T08:01:02;4.70;;;2.13;;
31424;SDS011;18054;51.572;7.372;2022-08-04T08:03:29;13.88;;;2.30;;
31424;SDS011;18054;51.572;7.372;2022-08-04T08:08:45;18.80;;;2.80;;
31424;SDS011;18054;51.572;7.372;2022-08-04T08:11:13;8.38;;;2.15;;
31424;SDS011;18054;51.572;7.372;2022-08-04T08:13:42;6.53;;;2.30;;
31424;SDS011;18054;51.572;7.372;2022-08-04T08:16:10;6.45;;;2.05;;
31424;SDS011;18054;51.572;7.372;2022-08-04T08:18:38;18.52;;;2.65;;
31424;SDS011;18054;51.572;7.372;2022-08-04T08:21:05;4.93;;;1.88;;
31424;SDS011;18054;51.572;7.372;2022-08-04T08:23:33;9.10;;;1.80;;
31424;SDS011;18054;51.572;7.372;2022-08-04T08:26:04;5.57;;;2.20;;
31424;SDS011;18054;51.572;7.372;2022-08-04T08:28:31;11.63;;;2.25;;
31424;SDS011;18054;51.572;7.372;2022-08-04T08:38:24;8.60;;;2.55;;
31424;SDS011;18054;51.572;7.372;2022-08-04T08:40:54;8.30;;;2.33;;
31424;SDS011;18054;51.572;7.372;2022-08-04T08:43:42;5.57;;;2.22;;
31424;SDS011;18054;51.572;7.372;2022-08-04T08:46:35;7.80;;;2.30;;
31424;SDS011;18054;51.572;7.372;2022-08-04T08:52:25;7.75;;;1.83;;
31424;SDS011;18054;51.572;7.372;2022-08-04T08:55:18;6.15;;;2.15;;
31424;SDS011;18054;51.572;7.372;2022-08-04T08:57:54;8.80;;;2.10;;
31424;SDS011;18054;51.572;7.372;2022-08-04T09:00:32;9.93;;;2.25;;
31424;SDS011;18054;51.572;7.372;2022-08-04T09:03:13;5.15;;;1.70;;
31424;SDS011;18054;51.572;7.372;2022-08-04T09:05:50;7.18;;;2.20;;
31424;SDS011;18054;51.572;7.372;2022-08-04T09:10:48;7.60;;;2.00;;
31424;SDS011;18054;51.572;7.372;2022-08-04T09:13:18;6.90;;;1.77;;
31424;SDS011;18054;51.572;7.372;2022-08-04T09:15:51;8.07;;;2.05;;
31424;SDS011;18054;51.572;7.372;2022-08-04T09:18:21;9.75;;;3.10;;
31424;SDS011;18054;51.572;7.372;2022-08-04T09:20:50;6.30;;;1.92;;
31424;SDS011;18054;51.572;7.372;2022-08-04T09:23:23;4.30;;;1.70;;
31424;SDS011;18054;51.572;7.372;2022-08-04T09:26:03;7.07;;;2.05;;
31424;SDS011;18054;51.572;7.372;2022-08-04T09:28:34;5.97;;;1.48;;
31424;SDS011;18054;51.572;7.372;2022-08-04T09:31:21;4.35;;;1.80;;
31424;SDS011;18054;51.572;7.372;2022-08-04T09:33:50;3.92;;;1.52;;
31424;SDS011;18054;51.572;7.372;2022-08-04T09:36:23;6.65;;;1.65;;
31424;SDS011;18054;51.572;7.372;2022-08-04T09:38:59;5.38;;;1.90;;
31424;SDS011;18054;51.572;7.372;2022-08-04T09:41:35;7.88;;;2.25;;
31424;SDS011;18054;51.572;7.372;2022-08-04T09:44:20;8.98;;;1.83;;
31424;SDS011;18054;51.572;7.372;2022-08-04T09:47:09;2.70;;;1.38;;
31424;SDS011;18054;51.572;7.372;2022-08-04T09:49:40;5.70;;;1.50;;
31424;SDS011;18054;51.572;7.372;2022-08-04T09:52:10;14.07;;;1.83;;
31424;SDS011;18054;51.572;7.372;2022-08-04T09:54:44;10.95;;;1.50;;
31424;SDS011;18054;51.572;7.372;2022-08-04T09:57:16;2.80;;;1.40;;
31424;SDS011;18054;51.572;7.372;2022-08-04T09:59:48;5.25;;;1.65;;
31424;SDS011;18054;51.572;7.372;2022-08-04T10:02:20;8.18;;;1.50;;
31424;SDS011;18054;51.572;7.372;2022-08-04T10:04:49;4.82;;;1.55;;
31424;SDS011;18054;51.572;7.372;2022-08-04T10:07:37;6.57;;;1.70;;
31424;SDS011;18054;51.572;7.372;2022-08-04T10:10:28;8.85;;;1.73;;
31424;SDS011;18054;51.572;7.372;2022-08-04T10:13:08;10.23;;;1.40;;
31424;SDS011;18054;51.572;7.372;2022-08-04T10:15:43;5.05;;;1.33;;
31424;SDS011;18054;51.572;7.372;2022-08-04T10:18:16;5.95;;;1.27;;
31424;SDS011;18054;51.572;7.372;2022-08-04T10:20:57;4.80;;;1.25;;
31424;SDS011;18054;51.572;7.372;2022-08-04T10:23:45;5.85;;;1.70;;
31424;SDS011;18054;51.572;7.372;2022-08-04T10:26:29;7.38;;;1.85;;
31424;SDS011;18054;51.572;7.372;2022-08-04T10:29:01;5.43;;;1.77;;
31424;SDS011;18054;51.572;7.372;2022-08-04T10:31:32;4.38;;;1.70;;
31424;SDS011;18054;51.572;7.372;2022-08-04T10:34:02;7.10;;;1.35;;
31424;SDS011;18054;51.572;7.372;2022-08-04T10:36:36;9.70;;;1.30;;
31424;SDS011;18054;51.572;7.372;2022-08-04T10:39:07;7.57;;;1.98;;
31424;SDS011;18054;51.572;7.372;2022-08-04T10:41:59;7.55;;;1.40;;
31424;SDS011;18054;51.572;7.372;2022-08-04T10:44:32;5.97;;;1.90;;
31424;SDS011;18054;51.572;7.372;2022-08-04T10:47:11;7.90;;;1.35;;
31424;SDS011;18054;51.572;7.372;2022-08-04T10:49:42;10.35;;;1.70;;
31424;SDS011;18054;51.572;7.372;2022-08-04T10:52:13;5.18;;;1.35;;
31424;SDS011;18054;51.572;7.372;2022-08-04T10:54:46;10.77;;;1.70;;
31424;SDS011;18054;51.572;7.372;2022-08-04T10:57:18;6.78;;;1.30;;
31424;SDS011;18054;51.572;7.372;2022-08-04T10:59:49;10.38;;;1.48;;
31424;SDS011;18054;51.572;7.372;2022-08-04T11:02:26;3.83;;;1.42;;
31424;SDS011;18054;51.572;7.372;2022-08-04T11:05:00;12.25;;;1.45;;
31424;SDS011;18054;51.572;7.372;2022-08-04T11:07:32;13.10;;;1.58;;
31424;SDS011;18054;51.572;7.372;2022-08-04T11:10:01;9.80;;;1.30;;
31424;SDS011;18054;51.572;7.372;2022-08-04T11:12:29;4.80;;;1.67;;
31424;SDS011;18054;51.572;7.372;2022-08-04T11:14:58;9.48;;;1.60;;
31424;SDS011;18054;51.572;7.372;2022-08-04T11:17:30;5.00;;;1.70;;
31424;SDS011;18054;51.572;7.372;2022-08-04T11:20:03;11.93;;;1.75;;
31424;SDS011;18054;51.572;7.372;2022-08-04T11:22:58;13.93;;;1.98;;
31424;SDS011;18054;51.572;7.372;2022-08-04T11:25:31;8.13;;;2.05;;
31424;SDS011;18054;51.572;7.372;2022-08-04T11:28:02;14.13;;;2.28;;
31424;SDS011;18054;51.572;7.372;2022-08-04T11:30:31;9.32;;;2.30;;
31424;SDS011;18054;51.572;7.372;2022-08-04T11:33:04;6.93;;;2.17;;
31424;SDS011;18054;51.572;7.372;2022-08-04T11:35:36;11.45;;;2.13;;
31424;SDS011;18054;51.572;7.372;2022-08-04T11:38:06;12.32;;;2.63;;
31424;SDS011;18054;51.572;7.372;2022-08-04T11:40:35;10.77;;;2.10;;
31424;SDS011;18054;51.572;7.372;2022-08-04T11:43:05;9.90;;;1.80;;
31424;SDS011;18054;51.572;7.372;2022-08-04T11:45:35;5.10;;;1.90;;
31424;SDS011;18054;51.572;7.372;2022-08-04T11:48:04;12.07;;;2.70;;
31424;SDS011;18054;51.572;7.372;2022-08-04T11:50:38;9.50;;;2.20;;
31424;SDS011;18054;51.572;7.372;2022-08-04T11:53:06;17.17;;;2.72;;
31424;SDS011;18054;51.572;7.372;2022-08-04T11:55:35;7.22;;;2.28;;
31424;SDS011;18054;51.572;7.372;2022-08-04T11:58:24;10.93;;;2.03;;
31424;SDS011;18054;51.572;7.372;2022-08-04T12:00:54;10.00;;;2.60;;
31424;SDS011;18054;51.572;7.372;2022-08-04T12:03:26;5.57;;;1.88;;
31424;SDS011;18054;51.572;7.372;2022-08-04T12:06:08;17.75;;;2.67;;
31424;SDS011;18054;51.572;7.372;2022-08-04T12:08:40;18.35;;;2.45;;
31424;SDS011;18054;51.572;7.372;2022-08-04T12:11:14;18.35;;;2.63;;
31424;SDS011;18054;51.572;7.372;2022-08-04T12:13:44;9.18;;;2.03;;
31424;SDS011;18054;51.572;7.372;2022-08-04T12:16:14;9.52;;;2.13;;
31424;SDS011;18054;51.572;7.372;2022-08-04T12:18:44;10.48;;;2.25;;
31424;SDS011;18054;51.572;7.372;2022-08-04T12:21:23;21.40;;;2.08;;
31424;SDS011;18054;51.572;7.372;2022-08-04T12:26:24;15.48;;;1.98;;
31424;SDS011;18054;51.572;7.372;2022-08-04T12:28:54;12.88;;;2.00;;
31424;SDS011;18054;51.572;7.372;2022-08-04T12:31:40;10.63;;;2.10;;
31424;SDS011;18054;51.572;7.372;2022-08-04T12:34:12;5.28;;;2.08;;
31424;SDS011;18054;51.572;7.372;2022-08-04T12:36:44;9.65;;;1.70;;
31424;SDS011;18054;51.572;7.372;2022-08-04T12:39:14;17.95;;;2.30;;
31424;SDS011;18054;51.572;7.372;2022-08-04T12:41:44;15.60;;;2.22;;
31424;SDS011;18054;51.572;7.372;2022-08-04T12:44:14;23.40;;;3.38;;
31424;SDS011;18054;51.572;7.372;2022-08-04T12:47:03;20.17;;;2.78;;
31424;SDS011;18054;51.572;7.372;2022-08-04T12:49:51;8.93;;;1.90;;
31424;SDS011;18054;51.572;7.372;2022-08-04T12:52:29;15.30;;;2.50;;
31424;SDS011;18054;51.572;7.372;2022-08-04T12:55:16;13.48;;;1.88;;
31424;SDS011;18054;51.572;7.372;2022-08-04T12:57:44;6.85;;;2.15;;
31424;SDS011;18054;51.572;7.372;2022-08-04T13:00:21;15.38;;;2.30;;
31424;SDS011;18054;51.572;7.372;2022-08-04T13:02:57;18.80;;;2.30;;
31424;SDS011;18054;51.572;7.372;2022-08-04T13:05:27;9.57;;;2.00;;
31424;SDS011;18054;51.572;7.372;2022-08-04T13:07:57;13.60;;;2.25;;
31424;SDS011;18054;51.572;7.372;2022-08-04T13:10:26;14.82;;;2.42;;
31424;SDS011;18054;51.572;7.372;2022-08-04T13:12:57;12.68;;;2.38;;
31424;SDS011;18054;51.572;7.372;2022-08-04T13:15:25;13.63;;;2.60;;
31424;SDS011;18054;51.572;7.372;2022-08-04T13:17:54;17.02;;;2.38;;
31424;SDS011;18054;51.572;7.372;2022-08-04T13:20:26;10.90;;;2.03;;
31424;SDS011;18054;51.572;7.372;2022-08-04T13:22:59;11.95;;;3.05;;
31424;SDS011;18054;51.572;7.372;2022-08-04T13:25:28;17.40;;;2.10;;
31424;SDS011;18054;51.572;7.372;2022-08-04T13:28:18;10.90;;;2.03;;
31424;SDS011;18054;51.572;7.372;2022-08-04T13:30:47;25.33;;;2.72;;
31424;SDS011;18054;51.572;7.372;2022-08-04T13:33:15;22.48;;;3.13;;
31424;SDS011;18054;51.572;7.372;2022-08-04T13:35:43;13.38;;;2.63;;
31424;SDS011;18054;51.572;7.372;2022-08-04T13:38:23;14.02;;;2.75;;
31424;SDS011;18054;51.572;7.372;2022-08-04T13:40:51;7.90;;;2.33;;
31424;SDS011;18054;51.572;7.372;2022-08-04T13:43:24;18.92;;;3.60;;
31424;SDS011;18054;51.572;7.372;2022-08-04T13:46:13;13.80;;;3.15;;
31424;SDS011;18054;51.572;7.372;2022-08-04T13:48:54;18.73;;;3.53;;
31424;SDS011;18054;51.572;7.372;2022-08-04T13:51:46;24.70;;;3.53;;
31424;SDS011;18054;51.572;7.372;2022-08-04T13:54:25;23.10;;;3.08;;
31424;SDS011;18054;51.572;7.372;2022-08-04T13:56:57;8.15;;;2.25;;
31424;SDS011;18054;51.572;7.372;2022-08-04T13:59:26;15.88;;;2.83;;
31424;SDS011;18054;51.572;7.372;2022-08-04T14:01:57;15.27;;;2.90;;
31424;SDS011;18054;51.572;7.372;2022-08-04T14:04:25;12.75;;;2.90;;
31424;SDS011;18054;51.572;7.372;2022-08-04T14:06:54;11.27;;;2.75;;
31424;SDS011;18054;51.572;7.372;2022-08-04T14:09:23;12.93;;;2.65;;
31424;SDS011;18054;51.572;7.372;2022-08-04T14:12:06;15.93;;;2.55;;
31424;SDS011;18054;51.572;7.372;2022-08-04T14:14:54;21.20;;;3.60;;
31424;SDS011;18054;51.572;7.372;2022-08-04T14:17:22;9.25;;;2.42;;
31424;SDS011;18054;51.572;7.372;2022-08-04T14:19:56;8.35;;;2.15;;
31424;SDS011;18054;51.572;7.372;2022-08-04T14:22:32;16.23;;;2.55;;
31424;SDS011;18054;51.572;7.372;2022-08-04T14:25:02;8.38;;;2.25;;
31424;SDS011;18054;51.572;7.372;2022-08-04T14:27:40;13.02;;;2.45;;
31424;SDS011;18054;51.572;7.372;2022-08-04T14:30:19;13.63;;;3.15;;
31424;SDS011;18054;51.572;7.372;2022-08-04T14:32:53;15.68;;;2.97;;
31424;SDS011;18054;51.572;7.372;2022-08-04T14:35:23;13.13;;;2.60;;
31424;SDS011;18054;51.572;7.372;2022-08-04T14:37:52;12.05;;;2.97;;
31424;SDS011;18054;51.572;7.372;2022-08-04T14:40:23;11.00;;;2.03;;
31424;SDS011;18054;51.572;7.372;2022-08-04T14:42:57;26.10;;;2.45;;
31424;SDS011;18054;51.572;7.372;2022-08-04T14:45:29;12.25;;;2.08;;
31424;SDS011;18054;51.572;7.372;2022-08-04T14:47:56;13.25;;;2.40;;
31424;SDS011;18054;51.572;7.372;2022-08-04T14:50:34;13.68;;;3.05;;
31424;SDS011;18054;51.572;7.372;2022-08-04T14:53:02;22.95;;;2.38;;
31424;SDS011;18054;51.572;7.372;2022-08-04T14:55:30;13.73;;;2.15;;
31424;SDS011;18054;51.572;7.372;2022-08-04T14:57:59;9.25;;;2.47;;
31424;SDS011;18054;51.572;7.372;2022-08-04T15:00:47;16.15;;;2.38;;
31424;SDS011;18054;51.572;7.372;2022-08-04T15:03:14;10.60;;;1.95;;
31424;SDS011;18054;51.572;7.372;2022-08-04T15:05:44;9.65;;;2.65;;
31424;SDS011;18054;51.572;7.372;2022-08-04T15:08:27;15.20;;;1.83;;
31424;SDS011;18054;51.572;7.372;2022-08-04T15:10:57;13.75;;;2.15;;
31424;SDS011;18054;51.572;7.372;2022-08-04T15:13:26;4.72;;;1.55;;
31424;SDS011;18054;51.572;7.372;2022-08-04T15:15:53;12.85;;;2.00;;
31424;SDS011;18054;51.572;7.372;2022-08-04T15:18:33;13.73;;;2.53;;
31424;SDS011;18054;51.572;7.372;2022-08-04T15:21:02;8.05;;;1.80;;
31424;SDS011;18054;51.572;7.372;2022-08-04T15:23:29;22.48;;;2.50;;
31424;SDS011;18054;51.572;7.372;2022-08-04T15:26:05;12.32;;;2.20;;
31424;SDS011;18054;51.572;7.372;2022-08-04T15:28:35;11.40;;;2.30;;
31424;SDS011;18054;51.572;7.372;2022-08-04T15:31:03;15.50;;;2.65;;
31424;SDS011;18054;51.572;7.372;2022-08-04T15:33:53;16.17;;;2.60;;
31424;SDS011;18054;51.572;7.372;2022-08-04T15:36:21;10.07;;;2.35;;
31424;SDS011;18054;51.572;7.372;2022-08-04T15:38:57;6.97;;;2.50;;
31424;SDS011;18054;51.572;7.372;2022-08-04T15:41:29;8.45;;;1.98;;
31424;SDS011;18054;51.572;7.372;2022-08-04T15:44:05;13.05;;;2.33;;
31424;SDS011;18054;51.572;7.372;2022-08-04T15:47:05;18.38;;;2.50;;
31424;SDS011;18054;51.572;7.372;2022-08-04T15:49:35;14.35;;;2.55;;
31424;SDS011;18054;51.572;7.372;2022-08-04T15:52:05;12.60;;;2.50;;
31424;SDS011;18054;51.572;7.372;2022-08-04T15:54:38;11.50;;;2.20;;
31424;SDS011;18054;51.572;7.372;2022-08-04T15:57:17;11.32;;;2.45;;
31424;SDS011;18054;51.572;7.372;2022-08-04T16:00:06;14.05;;;2.15;;
31424;SDS011;18054;51.572;7.372;2022-08-04T16:02:41;8.75;;;2.28;;
31424;SDS011;18054;51.572;7.372;2022-08-04T16:07:56;13.02;;;2.08;;
31424;SDS011;18054;51.572;7.372;2022-08-04T16:10:34;5.15;;;2.15;;
31424;SDS011;18054;51.572;7.372;2022-08-04T16:13:03;8.27;;;2.90;;
31424;SDS011;18054;51.572;7.372;2022-08-04T16:15:39;19.85;;;2.88;;
31424;SDS011;18054;51.572;7.372;2022-08-04T16:18:07;12.05;;;2.05;;